createdAt,value
2022-08-28T00:00:29.468Z,40.55
2022-08-28T00:02:57.454Z,40.88
2022-08-28T00:05:27.901Z,41.50
2022-08-28T00:07:54.979Z,40.28
2022-08-28T00:10:24.110Z,41.90
2022-08-28T00:12:53.572Z,39.47
2022-08-28T00:15:24.493Z,40.55
2022-08-28T00:17:51.285Z,42.77
2022-08-28T00:20:19.980Z,42.20
2022-08-28T00:22:47.622Z,41.03
2022-08-28T00:25:16.497Z,42.45
2022-08-28T00:27:52.590Z,40.65
2022-08-28T00:30:25.134Z,40.08
2022-08-28T00:32:54.563Z,41.53
2022-08-28T00:35:23.753Z,40.90
2022-08-28T00:37:51.916Z,41.35
2022-08-28T00:40:28.642Z,40.72
2022-08-28T00:43:04.436Z,40.67
2022-08-28T00:45:35.978Z,41.47
2022-08-28T00:48:04.339Z,42.10
2022-08-28T00:50:52.645Z,43.53
2022-08-28T00:53:20.541Z,41.08
2022-08-28T00:55:50.410Z,41.75
2022-08-28T00:58:18.108Z,41.83
2022-08-28T01:00:44.907Z,41.15
2022-08-28T01:03:11.768Z,40.60
2022-08-28T01:05:40.282Z,42.97
2022-08-28T01:08:07.144Z,41.33
2022-08-28T01:10:34.956Z,42.17
2022-08-28T01:13:02.968Z,42.83
2022-08-28T01:15:35.489Z,41.75
2022-08-28T01:18:08.627Z,41.05
2022-08-28T01:20:38.426Z,42.20
2022-08-28T01:23:22.457Z,42.40
2022-08-28T01:25:49.419Z,42.05
2022-08-28T01:28:16.765Z,41.40
2022-08-28T01:30:46.411Z,43.05
2022-08-28T01:33:14.858Z,43.05
2022-08-28T01:35:45.516Z,45.75
2022-08-28T01:38:12.577Z,45.22
2022-08-28T01:40:47.181Z,46.55
2022-08-28T01:43:21.137Z,46.17
2022-08-28T01:45:54.269Z,45.13
2022-08-28T01:48:23.653Z,46.00
2022-08-28T01:50:50.864Z,47.83
2022-08-28T01:53:20.077Z,48.28
2022-08-28T01:55:53.507Z,53.00
2022-08-28T01:58:21.692Z,50.42
2022-08-28T02:00:48.681Z,52.55
2022-08-28T02:03:16.256Z,53.45
2022-08-28T02:05:43.712Z,56.72
2022-08-28T02:08:10.778Z,57.58
2022-08-28T02:10:39.679Z,56.47
2022-08-28T02:13:07.692Z,59.08
2022-08-28T02:15:36.146Z,58.67
2022-08-28T02:18:04.130Z,57.63
2022-08-28T02:20:31.197Z,57.03
2022-08-28T02:22:58.774Z,56.88
2022-08-28T02:25:27.215Z,58.08
2022-08-28T02:27:54.668Z,59.40
2022-08-28T02:30:21.626Z,55.20
2022-08-28T02:32:48.409Z,56.92
2022-08-28T02:35:17.262Z,56.25
2022-08-28T02:37:46.001Z,56.78
2022-08-28T02:40:17.252Z,58.10
2022-08-28T02:42:44.407Z,58.08
2022-08-28T02:45:13.835Z,56.92
2022-08-28T02:47:43.723Z,57.70
2022-08-28T02:50:13.455Z,55.22
2022-08-28T02:52:41.400Z,57.03
2022-08-28T02:55:09.848Z,56.90
2022-08-28T02:57:37.701Z,53.47
2022-08-28T03:00:06.855Z,57.22
2022-08-28T03:02:34.202Z,56.83
2022-08-28T03:05:01.078Z,55.45
2022-08-28T03:07:29.391Z,56.70
2022-08-28T03:09:56.543Z,53.90
2022-08-28T03:12:26.495Z,55.55
2022-08-28T03:14:53.823Z,57.65
2022-08-28T03:17:22.122Z,55.47
2022-08-28T03:19:50.264Z,54.67
2022-08-28T03:22:38.487Z,53.15
2022-08-28T03:25:06.914Z,53.70
2022-08-28T03:27:34.171Z,54.85
2022-08-28T03:30:02.838Z,54.53
2022-08-28T03:32:31.773Z,54.17
2022-08-28T03:34:58.614Z,52.35
2022-08-28T03:37:25.759Z,52.42
2022-08-28T03:39:53.468Z,51.80
2022-08-28T03:42:20.359Z,53.67
2022-08-28T03:44:49.096Z,54.60
2022-08-28T03:47:16.765Z,51.63
2022-08-28T03:49:45.407Z,51.42
2022-08-28T03:52:12.719Z,53.20
2022-08-28T03:54:39.556Z,51.63
2022-08-28T03:57:07.608Z,51.70
2022-08-28T03:59:35.621Z,52.75
2022-08-28T04:02:02.577Z,50.50
2022-08-28T04:04:29.419Z,51.10
2022-08-28T04:06:56.193Z,49.55
2022-08-28T04:09:23.064Z,50.95
2022-08-28T04:11:49.860Z,48.65
2022-08-28T04:14:16.683Z,50.22
2022-08-28T04:16:43.781Z,50.90
2022-08-28T04:19:10.695Z,50.97
2022-08-28T04:21:37.549Z,50.40
2022-08-28T04:24:09.021Z,51.08
2022-08-28T04:26:36.861Z,50.00
2022-08-28T04:29:04.973Z,51.10
2022-08-28T04:31:32.966Z,49.30
2022-08-28T04:34:02.076Z,52.03
2022-08-28T04:36:29.407Z,50.70
2022-08-28T04:38:57.802Z,51.03
2022-08-28T04:41:24.571Z,49.03
2022-08-28T04:43:52.839Z,49.72
2022-08-28T04:46:20.570Z,49.08
2022-08-28T04:48:47.397Z,50.28
2022-08-28T04:51:17.913Z,50.65
2022-08-28T04:53:44.739Z,49.35
2022-08-28T04:56:14.062Z,48.63
2022-08-28T04:58:43.046Z,51.20
2022-08-28T05:01:13.799Z,49.30
2022-08-28T05:03:41.034Z,48.95
2022-08-28T05:06:09.520Z,47.67
2022-08-28T05:08:36.617Z,48.78
2022-08-28T05:11:22.074Z,47.42
2022-08-28T05:14:04.506Z,46.45
2022-08-28T05:16:32.502Z,49.85
2022-08-28T05:19:01.336Z,46.83
2022-08-28T05:21:28.451Z,47.05
2022-08-28T05:23:57.633Z,49.10
2022-08-28T05:26:26.833Z,46.97
2022-08-28T05:28:56.737Z,46.45
2022-08-28T05:31:25.133Z,49.05
2022-08-28T05:33:53.814Z,49.00
2022-08-28T05:36:23.302Z,48.78
2022-08-28T05:38:56.679Z,48.63
2022-08-28T05:41:27.559Z,48.47
2022-08-28T05:43:54.362Z,47.10
2022-08-28T05:46:22.409Z,48.72
2022-08-28T05:48:49.694Z,48.47
2022-08-28T05:51:20.280Z,47.20
2022-08-28T05:53:50.058Z,49.50
2022-08-28T05:56:26.918Z,47.88
2022-08-28T05:58:53.701Z,48.70
2022-08-28T06:01:29.098Z,49.13
2022-08-28T06:04:01.662Z,49.60
2022-08-28T06:06:31.541Z,49.28
2022-08-28T06:09:00.470Z,51.20
2022-08-28T06:11:30.927Z,50.80
2022-08-28T06:14:02.460Z,47.95
2022-08-28T06:16:32.726Z,49.00
2022-08-28T06:19:00.681Z,51.58
2022-08-28T06:21:28.600Z,51.42
2022-08-28T06:23:55.410Z,50.97
2022-08-28T06:26:23.096Z,51.30
2022-08-28T06:28:49.961Z,52.17
2022-08-28T06:31:24.249Z,49.92
2022-08-28T06:33:54.313Z,49.78
2022-08-28T06:36:21.880Z,51.28
2022-08-28T06:38:49.064Z,55.25
2022-08-28T06:41:16.203Z,50.83
2022-08-28T06:43:43.364Z,50.25
2022-08-28T06:46:10.246Z,52.85
2022-08-28T06:48:37.253Z,52.08
2022-08-28T06:51:07.474Z,53.00
2022-08-28T06:53:34.520Z,52.35
2022-08-28T06:56:08.732Z,51.83
2022-08-28T06:58:38.833Z,51.10
2022-08-28T07:01:11.241Z,51.67
2022-08-28T07:03:42.704Z,49.78
2022-08-28T07:06:14.103Z,49.45
2022-08-28T07:08:42.524Z,51.03
2022-08-28T07:11:25.954Z,50.58
2022-08-28T07:13:53.905Z,46.95
2022-08-28T07:16:23.059Z,45.92
2022-08-28T07:18:50.048Z,47.80
2022-08-28T07:21:16.927Z,48.30
2022-08-28T07:23:45.219Z,46.75
2022-08-28T07:26:20.948Z,61.65
2022-08-28T07:28:47.714Z,50.05
2022-08-28T07:31:18.060Z,45.78
2022-08-28T07:33:45.404Z,45.53
2022-08-28T07:36:25.578Z,48.67
2022-08-28T07:38:56.883Z,45.83
2022-08-28T07:41:27.063Z,46.10
2022-08-28T07:44:12.358Z,47.35
2022-08-28T07:46:40.667Z,47.20
2022-08-28T07:49:09.031Z,46.00
2022-08-28T07:51:37.038Z,45.17
2022-08-28T07:54:04.741Z,46.05
2022-08-28T07:56:32.243Z,47.00
2022-08-28T07:59:01.224Z,46.85
2022-08-28T08:01:30.926Z,46.92
2022-08-28T08:04:01.486Z,45.83
2022-08-28T08:06:34.279Z,46.08
2022-08-28T08:09:02.266Z,45.47
2022-08-28T08:11:32.629Z,43.58
2022-08-28T08:14:05.602Z,44.65
2022-08-28T08:16:39.315Z,44.50
2022-08-28T08:19:10.161Z,42.75
2022-08-28T08:21:38.091Z,41.75
2022-08-28T08:24:05.574Z,42.58
2022-08-28T08:26:33.248Z,41.58
2022-08-28T08:29:00.896Z,42.45
2022-08-28T08:31:33.900Z,39.47
2022-08-28T08:34:05.102Z,39.85
2022-08-28T08:36:34.682Z,57.80
2022-08-28T08:39:02.070Z,46.00
2022-08-28T08:41:57.718Z,45.75
2022-08-28T08:44:55.802Z,46.92
2022-08-28T08:47:27.031Z,46.72
2022-08-28T08:50:02.843Z,45.70
2022-08-28T08:52:33.457Z,45.10
2022-08-28T08:55:10.035Z,45.58
2022-08-28T08:57:39.114Z,45.88
2022-08-28T09:00:15.817Z,45.00
2022-08-28T09:03:19.545Z,43.25
2022-08-28T09:05:53.377Z,38.45
2022-08-28T09:08:40.106Z,41.70
2022-08-28T09:11:34.374Z,39.95
2022-08-28T09:14:06.956Z,39.22
2022-08-28T09:16:38.413Z,37.60
2022-08-28T09:21:35.453Z,37.30
2022-08-28T09:24:10.898Z,37.10
2022-08-28T09:26:39.583Z,36.58
2022-08-28T09:29:15.986Z,35.17
2022-08-28T09:31:44.110Z,35.03
2022-08-28T09:34:28.549Z,36.60
2022-08-28T09:36:57.491Z,35.75
2022-08-28T09:39:35.912Z,36.72
2022-08-28T09:42:40.906Z,35.28
2022-08-28T09:45:18.410Z,31.30
2022-08-28T09:47:49.716Z,31.17
2022-08-28T09:52:46.622Z,27.40
2022-08-28T09:55:22.108Z,27.73
2022-08-28T09:57:49.060Z,25.58
2022-08-28T10:00:16.642Z,22.33
2022-08-28T10:03:03.302Z,20.10
2022-08-28T10:05:41.742Z,17.63
2022-08-28T10:08:25.837Z,18.90
2022-08-28T10:10:58.756Z,17.88
2022-08-28T10:13:38.570Z,17.33
2022-08-28T10:16:28.920Z,17.33
2022-08-28T10:19:18.680Z,17.00
2022-08-28T10:21:48.266Z,17.40
2022-08-28T10:24:30.501Z,16.63
2022-08-28T10:27:12.733Z,15.27
2022-08-28T10:30:12.524Z,15.90
2022-08-28T10:33:02.252Z,14.85
2022-08-28T10:35:41.306Z,15.63
2022-08-28T10:38:41.925Z,15.45
2022-08-28T10:41:25.914Z,17.60
2022-08-28T10:43:54.720Z,16.25
2022-08-28T10:46:27.690Z,16.88
2022-08-28T10:49:03.196Z,16.30
2022-08-28T10:51:37.650Z,17.17
2022-08-28T10:54:18.891Z,17.90
2022-08-28T10:56:56.818Z,17.95
2022-08-28T10:59:25.769Z,17.52
2022-08-28T11:01:52.777Z,17.17
2022-08-28T11:04:25.688Z,17.85
2022-08-28T11:07:10.239Z,17.58
2022-08-28T11:09:46.054Z,16.65
2022-08-28T11:12:19.884Z,17.20
2022-08-28T11:14:51.045Z,16.90
2022-08-28T11:17:27.770Z,17.95
2022-08-28T11:20:09.797Z,17.25
2022-08-28T11:22:49.347Z,16.85
2022-08-28T11:25:32.470Z,17.20
2022-08-28T11:28:32.508Z,16.42
2022-08-28T11:31:05.151Z,16.17
2022-08-28T11:33:50.556Z,15.77
2022-08-28T11:36:20.059Z,15.18
2022-08-28T11:39:19.431Z,14.95
2022-08-28T11:42:10.787Z,15.38
2022-08-28T11:44:45.860Z,15.68
2022-08-28T11:47:36.959Z,15.60
2022-08-28T11:50:20.096Z,15.30
2022-08-28T11:52:49.557Z,15.25
2022-08-28T11:55:31.021Z,16.02
2022-08-28T12:00:33.611Z,15.65
2022-08-28T12:03:24.233Z,15.70
2022-08-28T12:05:55.562Z,17.42
2022-08-28T12:08:53.231Z,17.05
2022-08-28T12:11:44.953Z,17.70
2022-08-28T12:14:46.891Z,16.27
2022-08-28T12:17:17.900Z,17.63
2022-08-28T12:19:55.273Z,17.90
2022-08-28T12:22:44.620Z,16.98
2022-08-28T12:25:24.877Z,18.55
2022-08-28T12:27:53.216Z,19.05
2022-08-28T12:30:32.407Z,18.15
2022-08-28T12:33:32.021Z,17.08
2022-08-28T12:36:04.601Z,17.58
2022-08-28T12:38:33.562Z,16.77
2022-08-28T12:41:02.586Z,17.08
2022-08-28T12:43:45.669Z,16.05
2022-08-28T12:46:36.397Z,15.63
2022-08-28T12:49:25.302Z,15.57
2022-08-28T12:52:07.834Z,14.60
2022-08-28T12:54:35.359Z,15.80
2022-08-28T12:57:08.383Z,15.48
2022-08-28T12:59:50.226Z,15.02
2022-08-28T13:02:36.377Z,16.13
2022-08-28T13:05:12.087Z,15.45
2022-08-28T13:07:51.420Z,15.60
2022-08-28T13:10:24.553Z,16.10
2022-08-28T13:13:05.443Z,16.40
2022-08-28T13:18:35.440Z,15.60
2022-08-28T13:21:17.461Z,15.45
2022-08-28T13:24:00.144Z,17.27
2022-08-28T13:26:33.201Z,16.60
2022-08-28T13:29:02.906Z,15.68
2022-08-28T13:31:35.903Z,16.23
2022-08-28T13:34:07.096Z,16.23
2022-08-28T13:39:13.622Z,17.30
2022-08-28T13:41:41.699Z,15.93
2022-08-28T13:44:09.190Z,15.77
2022-08-28T13:46:36.156Z,16.88
2022-08-28T13:49:02.958Z,17.00
2022-08-28T13:51:29.833Z,16.83
2022-08-28T13:53:58.086Z,16.70
2022-08-28T13:56:27.644Z,15.55
2022-08-28T13:58:57.847Z,16.17
2022-08-28T14:01:48.680Z,15.65
2022-08-28T14:04:15.866Z,15.80
2022-08-28T14:06:44.131Z,15.05
2022-08-28T14:09:17.545Z,15.27
2022-08-28T14:11:49.741Z,16.80
2022-08-28T14:14:17.142Z,15.07
2022-08-28T14:16:45.659Z,14.73
2022-08-28T14:19:12.883Z,15.23
2022-08-28T14:21:41.570Z,14.57
2022-08-28T14:24:09.224Z,14.38
2022-08-28T14:26:36.392Z,13.95
2022-08-28T14:29:06.638Z,13.75
2022-08-28T14:31:36.047Z,12.98
2022-08-28T14:34:05.563Z,13.65
2022-08-28T14:36:33.318Z,14.55
2022-08-28T14:39:06.198Z,14.68
2022-08-28T14:41:34.556Z,14.57
2022-08-28T14:44:02.104Z,15.13
2022-08-28T14:46:34.195Z,15.95
2022-08-28T14:49:03.916Z,16.52
2022-08-28T14:51:33.394Z,16.88
2022-08-28T14:54:01.713Z,19.25
2022-08-28T14:56:31.556Z,19.13
2022-08-28T14:59:00.301Z,19.58
2022-08-28T15:01:40.469Z,22.40
2022-08-28T15:04:11.259Z,24.25
2022-08-28T15:06:38.462Z,26.25
2022-08-28T15:09:05.549Z,25.80
2022-08-28T15:11:32.432Z,25.70
2022-08-28T15:13:59.217Z,27.50
2022-08-28T15:16:31.144Z,27.20
2022-08-28T15:18:59.401Z,28.30
2022-08-28T15:21:35.439Z,27.48
2022-08-28T15:24:04.031Z,30.45
2022-08-28T15:26:32.103Z,30.75
2022-08-28T15:29:02.301Z,30.83
2022-08-28T15:31:31.236Z,31.80
2022-08-28T15:33:58.480Z,31.23
2022-08-28T15:36:25.313Z,33.40
2022-08-28T15:39:10.882Z,33.42
2022-08-28T15:41:38.558Z,33.85
2022-08-28T15:44:05.883Z,35.20
2022-08-28T15:46:34.511Z,36.00
2022-08-28T15:49:04.141Z,35.45
2022-08-28T15:51:35.884Z,36.80
2022-08-28T15:54:03.010Z,37.63
2022-08-28T15:56:29.837Z,37.67
2022-08-28T15:58:56.822Z,36.97
2022-08-28T16:01:23.918Z,37.33
2022-08-28T16:03:50.825Z,36.72
2022-08-28T16:06:20.835Z,38.40
2022-08-28T16:08:49.148Z,38.17
2022-08-28T16:11:20.829Z,38.50
2022-08-28T16:13:47.937Z,37.55
2022-08-28T16:16:14.808Z,38.90
2022-08-28T16:18:41.939Z,40.13
2022-08-28T16:21:09.223Z,38.88
2022-08-28T16:23:37.217Z,40.00
2022-08-28T16:26:05.863Z,39.25
2022-08-28T16:28:33.363Z,40.03
2022-08-28T16:31:11.684Z,39.40
2022-08-28T16:33:47.750Z,39.83
2022-08-28T16:36:15.759Z,40.20
2022-08-28T16:38:46.160Z,41.53
2022-08-28T16:41:19.642Z,41.67
2022-08-28T16:43:47.242Z,41.65
2022-08-28T16:46:20.092Z,41.25
2022-08-28T16:48:48.042Z,43.28
2022-08-28T16:51:16.260Z,43.33
2022-08-28T16:53:43.474Z,43.22
2022-08-28T16:56:12.229Z,45.22
2022-08-28T16:58:39.944Z,46.20
2022-08-28T17:01:08.353Z,45.53
2022-08-28T17:03:38.708Z,46.15
2022-08-28T17:06:18.504Z,44.92
2022-08-28T17:08:45.384Z,45.70
2022-08-28T17:11:12.970Z,48.67
2022-08-28T17:13:40.354Z,47.55
2022-08-28T17:16:08.178Z,47.78
2022-08-28T17:18:35.376Z,46.38
2022-08-28T17:21:20.849Z,47.08
2022-08-28T17:23:47.903Z,48.30
2022-08-28T17:26:15.417Z,49.13
2022-08-28T17:28:42.988Z,51.30
2022-08-28T17:31:11.291Z,49.85
2022-08-28T17:33:40.567Z,52.33
2022-08-28T17:36:08.857Z,50.25
2022-08-28T17:38:48.627Z,50.92
2022-08-28T17:41:15.453Z,53.00
2022-08-28T17:43:42.311Z,52.10
2022-08-28T17:46:09.189Z,51.65
2022-08-28T17:48:37.012Z,51.95
2022-08-28T17:51:04.830Z,51.83
2022-08-28T17:53:31.705Z,53.25
2022-08-28T17:55:59.114Z,53.85
2022-08-28T17:58:25.902Z,57.92
2022-08-28T18:00:52.998Z,59.55
2022-08-28T18:03:19.861Z,60.25
2022-08-28T18:05:46.668Z,60.67
2022-08-28T18:08:13.702Z,63.70
2022-08-28T18:10:40.779Z,61.88
2022-08-28T18:13:07.641Z,65.60
2022-08-28T18:15:34.786Z,64.85
2022-08-28T18:18:04.814Z,65.68
2022-08-28T18:20:31.675Z,65.38
2022-08-28T18:22:58.555Z,65.05
2022-08-28T18:25:50.730Z,66.05
2022-08-28T18:28:22.471Z,63.50
2022-08-28T18:30:51.002Z,63.92
2022-08-28T18:33:22.263Z,61.80
2022-08-28T18:35:50.508Z,60.80
2022-08-28T18:38:18.532Z,57.72
2022-08-28T18:40:45.586Z,55.70
2022-08-28T18:43:13.882Z,53.97
2022-08-28T18:45:40.850Z,52.67
2022-08-28T18:48:12.602Z,51.95
2022-08-28T18:50:43.221Z,51.70
2022-08-28T18:53:12.824Z,52.35
2022-08-28T18:55:39.711Z,50.97
2022-08-28T18:58:06.988Z,51.42
2022-08-28T19:00:34.405Z,50.20
2022-08-28T19:03:01.394Z,50.63
2022-08-28T19:05:28.375Z,49.47
2022-08-28T19:07:55.179Z,46.63
2022-08-28T19:10:33.447Z,47.80
2022-08-28T19:13:01.964Z,46.33
2022-08-28T19:15:29.703Z,46.72
2022-08-28T19:17:56.814Z,43.85
2022-08-28T19:20:23.931Z,45.15
2022-08-28T19:22:50.785Z,43.97
2022-08-28T19:25:27.883Z,44.33
2022-08-28T19:27:56.414Z,44.17
2022-08-28T19:30:28.066Z,45.75
2022-08-28T19:32:55.299Z,43.03
2022-08-28T19:35:24.574Z,44.33
2022-08-28T19:37:52.667Z,43.78
2022-08-28T19:40:20.678Z,43.95
2022-08-28T19:42:49.898Z,43.00
2022-08-28T19:45:17.269Z,40.80
2022-08-28T19:47:44.204Z,40.60
2022-08-28T19:50:12.886Z,42.38
2022-08-28T19:52:40.212Z,40.38
2022-08-28T19:55:08.003Z,41.05
2022-08-28T19:57:35.523Z,41.30
2022-08-28T20:00:04.178Z,40.38
2022-08-28T20:02:31.172Z,40.83
2022-08-28T20:04:58.043Z,38.30
2022-08-28T20:07:25.147Z,39.90
2022-08-28T20:09:52.434Z,37.40
2022-08-28T20:12:19.981Z,39.38
2022-08-28T20:14:47.065Z,36.85
2022-08-28T20:17:14.138Z,37.88
2022-08-28T20:19:41.584Z,37.08
2022-08-28T20:22:08.711Z,36.47
2022-08-28T20:24:35.547Z,35.92
2022-08-28T20:27:02.592Z,36.25
2022-08-28T20:29:29.691Z,34.95
2022-08-28T20:31:56.502Z,34.97
2022-08-28T20:34:24.570Z,33.20
2022-08-28T20:36:51.558Z,35.55
2022-08-28T20:39:20.073Z,32.45
2022-08-28T20:41:49.301Z,34.13
2022-08-28T20:44:18.550Z,34.00
2022-08-28T20:46:51.176Z,32.70
2022-08-28T20:49:22.197Z,33.33
2022-08-28T20:51:52.796Z,32.15
2022-08-28T20:54:21.539Z,31.90
2022-08-28T20:56:49.365Z,29.35
2022-08-28T20:59:16.845Z,31.00
2022-08-28T21:01:43.741Z,30.15
2022-08-28T21:04:10.849Z,28.83
2022-08-28T21:06:38.366Z,28.15
2022-08-28T21:09:05.230Z,28.88
2022-08-28T21:11:32.067Z,28.55
2022-08-28T21:13:58.934Z,28.02
2022-08-28T21:16:26.161Z,26.52
2022-08-28T21:19:14.560Z,26.27
2022-08-28T21:21:40.859Z,27.60
2022-08-28T21:24:10.754Z,25.90
2022-08-28T21:26:40.578Z,26.05
2022-08-28T21:29:09.957Z,26.23
2022-08-28T21:31:41.326Z,26.58
2022-08-28T21:34:09.512Z,26.25
2022-08-28T21:36:38.453Z,26.55
2022-08-28T21:39:06.168Z,26.40
2022-08-28T21:41:33.260Z,27.25
2022-08-28T21:44:00.341Z,26.63
2022-08-28T21:46:27.819Z,24.10
2022-08-28T21:48:56.288Z,24.98
2022-08-28T21:51:24.488Z,25.70
2022-08-28T21:53:51.542Z,25.08
2022-08-28T21:56:22.857Z,25.98
2022-08-28T21:58:51.108Z,24.73
2022-08-28T22:01:20.632Z,25.20
2022-08-28T22:03:47.541Z,25.10
2022-08-28T22:06:18.495Z,24.60
2022-08-28T22:08:47.169Z,27.73
2022-08-28T22:11:15.729Z,26.33
2022-08-28T22:13:48.537Z,26.17
2022-08-28T22:16:15.981Z,27.17
2022-08-28T22:18:42.917Z,27.20
2022-08-28T22:21:34.518Z,27.02
2022-08-28T22:24:01.443Z,27.90
2022-08-28T22:26:28.474Z,27.20
2022-08-28T22:28:56.134Z,29.00
2022-08-28T22:31:23.984Z,29.20
2022-08-28T22:33:52.257Z,28.38
2022-08-28T22:36:20.750Z,28.25
2022-08-28T22:38:53.202Z,29.65
2022-08-28T22:41:20.830Z,30.27
2022-08-28T22:43:49.858Z,29.75
2022-08-28T22:46:17.025Z,29.15
2022-08-28T22:48:43.904Z,30.13
2022-08-28T22:51:14.063Z,30.35
2022-08-28T22:53:43.338Z,28.88
2022-08-28T22:56:11.509Z,30.60
2022-08-28T22:58:39.617Z,30.15
2022-08-28T23:01:11.863Z,30.92
2022-08-28T23:03:39.653Z,31.30
2022-08-28T23:06:07.030Z,32.67
2022-08-28T23:08:34.324Z,30.65
2022-08-28T23:11:01.622Z,30.88
2022-08-28T23:13:30.036Z,30.42
2022-08-28T23:15:56.922Z,30.63
2022-08-28T23:18:24.797Z,31.58
2022-08-28T23:20:52.569Z,31.20
2022-08-28T23:23:19.618Z,31.83
2022-08-28T23:25:46.786Z,29.77
2022-08-28T23:28:13.629Z,33.08
2022-08-28T23:30:41.407Z,36.47
2022-08-28T23:33:19.749Z,36.83
2022-08-28T23:35:50.438Z,37.30
2022-08-28T23:38:17.274Z,37.80
2022-08-28T23:40:44.555Z,38.35
2022-08-28T23:43:11.995Z,36.33
2022-08-28T23:45:40.544Z,38.00
2022-08-28T23:48:08.275Z,38.17
2022-08-28T23:50:35.617Z,37.97
2022-08-28T23:53:04.034Z,36.20
2022-08-28T23:55:31.538Z,37.33
2022-08-28T23:58:00.592Z,37.72
